Flugplatz Falkenberg-Lönnewitz

Für EDUF sind keine METAR/TAF Berichte vorhanden.
Es werden die Flugwettermeldungen vom Flugplatz Holzdorf Airport in 24 km Entfernung angezeigt.

Bericht für ETSH

vom 22.01. um 13:20 UTC

Wind 10 kt aus 260°

Sichtweite 1800 m

schwacher Sprühregen

feuchter Dunst

gering bewölkt in 100 ft

aufgebrochene Bewölkung in 200 ft

Temperatur 3.0°C

Taupunkt 2.0°C

Luftfeuchtigkeit 93%

Luftdruck 1031 hPa

ETSH 221320Z 26010KT 1800 R27/3400N -DZ BR FEW001 BKN002 03/02 Q1031 AMB YLO TEMPO RED

Prognose für ETSH

vom 22.01. um 00:00 UTC

Zwischen 00:00 UTC und 00:00 UTC

Wind 8 kt aus 250°

Sichtweite 3000 m

feuchter Dunst

aufgebrochene Bewölkung in 300 ft


Zwischen 00:00 UTC und 00:00 UTC zeitweise

Wind 12 kt aus 260°

Sichtweite 500 m

Nebel

bedeckt in 100 ft


Zwischen 00:00 UTC und 00:00 UTC zeitweise

Wind 7 kt aus 280°

Sichtweite 5000 m

feuchter Dunst

aufgebrochene Bewölkung in 800 ft

TAF ETSH 221123Z 2212/2221 25008KT 3000 BR BKN003 TEMPO 2212/2215 26012KT 0500 FG OVC001 TEMPO 2215/2218 28007KT 5000 BR BKN008
Impressum